createdAt,value
2017-02-16T00:00:00.341Z,24.18
2017-02-16T00:00:04.792Z,24.18
2017-02-16T00:00:09.089Z,24.18
2017-02-16T00:00:13.660Z,24.18
2017-02-16T00:00:18.403Z,24.19
2017-02-16T00:00:23.117Z,24.18
2017-02-16T00:00:27.719Z,24.18
2017-02-16T00:00:32.438Z,24.18
2017-02-16T00:00:37.161Z,24.19
2017-02-16T00:00:41.880Z,24.18
2017-02-16T00:00:46.590Z,24.18
2017-02-16T00:00:51.296Z,24.18
2017-02-16T00:00:56.016Z,24.18
2017-02-16T00:01:00.631Z,24.18
2017-02-16T00:01:05.454Z,24.17
2017-02-16T00:01:10.017Z,24.18
2017-02-16T00:01:14.150Z,24.19
2017-02-16T00:01:18.709Z,24.18
2017-02-16T00:01:23.431Z,24.18
2017-02-16T00:01:28.189Z,24.18
2017-02-16T00:01:32.911Z,24.18
2017-02-16T00:01:37.625Z,24.17
2017-02-16T00:01:42.342Z,24.18
2017-02-16T00:01:46.936Z,24.18
2017-02-16T00:01:51.662Z,24.18
2017-02-16T00:01:56.251Z,24.18
2017-02-16T00:02:00.989Z,24.18
2017-02-16T00:02:05.922Z,24.18
2017-02-16T00:02:10.364Z,24.18
2017-02-16T00:02:14.781Z,24.18
2017-02-16T00:02:19.212Z,24.18
2017-02-16T00:02:23.961Z,24.18
2017-02-16T00:02:28.544Z,24.18
2017-02-16T00:02:33.262Z,24.18
2017-02-16T00:02:37.996Z,24.17
2017-02-16T00:02:42.758Z,24.18
2017-02-16T00:02:47.499Z,24.17
2017-02-16T00:02:52.229Z,24.17
2017-02-16T00:02:56.983Z,24.17
2017-02-16T00:03:01.819Z,24.17
2017-02-16T00:03:06.534Z,24.18
2017-02-16T00:03:11.149Z,24.17
2017-02-16T00:03:15.575Z,24.18
2017-02-16T00:03:20.303Z,24.17
2017-02-16T00:03:25.058Z,24.17
2017-02-16T00:03:29.782Z,24.17
2017-02-16T00:03:34.529Z,24.17
2017-02-16T00:03:39.285Z,24.17
2017-02-16T00:03:44.059Z,24.18
2017-02-16T00:03:48.781Z,24.17
2017-02-16T00:03:53.207Z,24.17
2017-02-16T00:03:57.962Z,24.18
2017-02-16T00:04:02.706Z,24.18
2017-02-16T00:04:07.136Z,24.17
2017-02-16T00:04:11.560Z,24.17
2017-02-16T00:04:15.978Z,24.18
2017-02-16T00:04:20.719Z,24.18
2017-02-16T00:04:25.426Z,24.17
2017-02-16T00:04:30.008Z,24.18
2017-02-16T00:04:34.759Z,24.18
2017-02-16T00:04:39.461Z,24.17
2017-02-16T00:04:44.195Z,24.17
2017-02-16T00:04:48.921Z,24.17
2017-02-16T00:04:53.927Z,24.17
2017-02-16T00:04:58.667Z,24.16
2017-02-16T00:05:03.241Z,24.17
2017-02-16T00:05:07.849Z,24.18
2017-02-16T00:05:12.267Z,24.17
2017-02-16T00:05:16.847Z,24.17
2017-02-16T00:05:21.575Z,24.18
2017-02-16T00:05:26.308Z,24.16
2017-02-16T00:05:31.033Z,24.18
2017-02-16T00:05:35.732Z,24.17
2017-02-16T00:05:40.452Z,24.18
2017-02-16T00:05:45.212Z,24.17
2017-02-16T00:05:49.946Z,24.18
2017-02-16T00:05:54.672Z,24.17
2017-02-16T00:05:59.408Z,24.16
2017-02-16T00:06:04.499Z,24.17
2017-02-16T00:06:09.089Z,24.17
2017-02-16T00:06:13.673Z,24.17
2017-02-16T00:06:18.248Z,24.17
2017-02-16T00:06:22.810Z,24.16
2017-02-16T00:06:27.536Z,24.17
2017-02-16T00:06:32.256Z,24.17
2017-02-16T00:06:36.851Z,24.17
2017-02-16T00:06:41.617Z,24.17
2017-02-16T00:06:46.332Z,24.17
2017-02-16T00:06:51.065Z,24.17
2017-02-16T00:06:55.807Z,24.17
2017-02-16T00:07:00.506Z,24.17
2017-02-16T00:07:05.042Z,24.17
2017-02-16T00:07:09.618Z,24.17
2017-02-16T00:07:14.052Z,24.17
2017-02-16T00:07:18.648Z,24.17
2017-02-16T00:07:23.350Z,24.15
2017-02-16T00:07:28.079Z,24.16
2017-02-16T00:07:32.800Z,24.17
2017-02-16T00:07:37.523Z,24.17
2017-02-16T00:07:42.234Z,24.17
2017-02-16T00:07:46.972Z,24.16
2017-02-16T00:07:51.723Z,24.16
2017-02-16T00:07:56.320Z,24.17
2017-02-16T00:08:01.051Z,24.17
2017-02-16T00:08:05.730Z,24.16
2017-02-16T00:08:10.032Z,24.16
2017-02-16T00:08:14.735Z,24.16
2017-02-16T00:08:19.148Z,24.16
2017-02-16T00:08:23.870Z,24.17
2017-02-16T00:08:28.467Z,24.16
2017-02-16T00:08:33.215Z,24.17
2017-02-16T00:08:37.962Z,24.17
2017-02-16T00:08:42.697Z,24.16
2017-02-16T00:08:47.406Z,24.16
2017-02-16T00:08:52.131Z,24.16
2017-02-16T00:08:56.863Z,24.17
2017-02-16T00:09:01.636Z,24.16
2017-02-16T00:09:06.399Z,24.16
2017-02-16T00:09:11.145Z,24.17
2017-02-16T00:09:15.551Z,24.16
2017-02-16T00:09:20.269Z,24.16
2017-02-16T00:09:25.027Z,24.16
2017-02-16T00:09:29.628Z,24.16
2017-02-16T00:09:34.363Z,24.16
2017-02-16T00:09:39.090Z,24.16
2017-02-16T00:09:43.838Z,24.17
2017-02-16T00:09:48.314Z,24.17
2017-02-16T00:09:53.339Z,24.16
2017-02-16T00:09:58.068Z,24.17
2017-02-16T00:10:02.807Z,24.16
2017-02-16T00:10:07.251Z,24.16
2017-02-16T00:10:11.813Z,24.16
2017-02-16T00:10:16.265Z,24.16
2017-02-16T00:10:20.830Z,24.16
2017-02-16T00:10:25.540Z,24.16
2017-02-16T00:10:30.314Z,24.16
2017-02-16T00:10:35.065Z,24.16
2017-02-16T00:10:39.801Z,24.16
2017-02-16T00:10:44.511Z,24.17
2017-02-16T00:10:49.233Z,24.16
2017-02-16T00:10:53.955Z,24.16
2017-02-16T00:10:58.733Z,24.16
2017-02-16T00:11:03.448Z,24.16
2017-02-16T00:11:07.877Z,24.15
2017-02-16T00:11:12.302Z,24.16
2017-02-16T00:11:17.031Z,24.16
2017-02-16T00:11:21.760Z,24.17
2017-02-16T00:11:26.506Z,24.15
2017-02-16T00:11:31.096Z,24.16
2017-02-16T00:11:35.831Z,24.16
2017-02-16T00:11:40.548Z,24.16
2017-02-16T00:11:45.282Z,24.16
2017-02-16T00:11:50.061Z,24.16
2017-02-16T00:11:54.785Z,24.16
2017-02-16T00:11:59.561Z,24.15
2017-02-16T00:12:04.450Z,24.16
2017-02-16T00:12:09.059Z,24.16
2017-02-16T00:12:13.606Z,24.16
2017-02-16T00:12:18.177Z,24.17
2017-02-16T00:12:22.754Z,24.16
2017-02-16T00:12:27.475Z,24.16
2017-02-16T00:12:32.199Z,24.16
2017-02-16T00:12:36.770Z,24.16
2017-02-16T00:12:41.500Z,24.16
2017-02-16T00:12:46.221Z,24.16
2017-02-16T00:12:50.922Z,24.16
2017-02-16T00:12:55.480Z,24.16
2017-02-16T00:13:00.214Z,24.16
2017-02-16T00:13:05.072Z,24.16
2017-02-16T00:13:09.698Z,24.16
2017-02-16T00:13:14.260Z,24.16
2017-02-16T00:13:18.982Z,24.15
2017-02-16T00:13:23.685Z,24.16
2017-02-16T00:13:28.414Z,24.16
2017-02-16T00:13:33.141Z,24.16
2017-02-16T00:13:37.861Z,24.16
2017-02-16T00:13:42.600Z,24.16
2017-02-16T00:13:47.332Z,24.15
2017-02-16T00:13:52.058Z,24.15
2017-02-16T00:13:56.633Z,24.15
2017-02-16T00:14:01.353Z,24.16
2017-02-16T00:14:06.061Z,24.15
2017-02-16T00:14:10.808Z,24.15
2017-02-16T00:14:15.229Z,24.16
2017-02-16T00:14:19.985Z,24.15
2017-02-16T00:14:24.542Z,24.15
2017-02-16T00:14:29.254Z,24.16
2017-02-16T00:14:33.966Z,24.16
2017-02-16T00:14:38.675Z,24.16
2017-02-16T00:14:43.402Z,24.15
2017-02-16T00:14:48.121Z,24.15
2017-02-16T00:14:53.033Z,24.16
2017-02-16T00:14:57.780Z,24.16
2017-02-16T00:15:02.706Z,24.15
2017-02-16T00:15:07.284Z,24.16
2017-02-16T00:15:11.899Z,24.16
2017-02-16T00:15:16.458Z,24.16
2017-02-16T00:15:21.049Z,24.15
2017-02-16T00:15:25.766Z,24.15
2017-02-16T00:15:30.335Z,24.15
2017-02-16T00:15:35.049Z,24.16
2017-02-16T00:15:39.807Z,24.15
2017-02-16T00:15:44.385Z,24.15
2017-02-16T00:15:49.123Z,24.15
2017-02-16T00:15:53.854Z,24.16
2017-02-16T00:15:58.560Z,24.15
2017-02-16T00:16:03.334Z,24.15
2017-02-16T00:16:07.898Z,24.15
2017-02-16T00:16:12.650Z,24.15
2017-02-16T00:16:17.089Z,24.15
2017-02-16T00:16:21.490Z,24.15
2017-02-16T00:16:26.226Z,24.16
2017-02-16T00:16:30.782Z,24.15
2017-02-16T00:16:35.506Z,24.15
2017-02-16T00:16:40.229Z,24.15
2017-02-16T00:16:44.960Z,24.15
2017-02-16T00:16:49.696Z,24.16
2017-02-16T00:16:54.418Z,24.15
2017-02-16T00:16:59.162Z,24.15
2017-02-16T00:17:03.938Z,24.15
2017-02-16T00:17:08.505Z,24.15
2017-02-16T00:17:13.078Z,24.15
2017-02-16T00:17:17.794Z,24.15
2017-02-16T00:17:22.365Z,24.15
2017-02-16T00:17:26.928Z,24.15
2017-02-16T00:17:31.636Z,24.15
2017-02-16T00:17:36.347Z,24.15
2017-02-16T00:17:41.060Z,24.15
2017-02-16T00:17:45.786Z,24.14
2017-02-16T00:17:50.496Z,24.14
2017-02-16T00:17:55.091Z,24.14
2017-02-16T00:17:59.817Z,24.15
2017-02-16T00:18:04.527Z,24.15
2017-02-16T00:18:09.273Z,24.15
2017-02-16T00:18:13.868Z,24.14
2017-02-16T00:18:18.459Z,24.15
2017-02-16T00:18:23.212Z,24.14
2017-02-16T00:18:27.785Z,24.15
2017-02-16T00:18:32.493Z,24.15
2017-02-16T00:18:37.208Z,24.14
2017-02-16T00:18:41.950Z,24.14
2017-02-16T00:18:46.588Z,24.14
2017-02-16T00:18:51.297Z,24.15
2017-02-16T00:18:55.881Z,24.15
2017-02-16T00:19:00.601Z,24.14
2017-02-16T00:19:05.357Z,24.14
2017-02-16T00:19:10.140Z,24.15
2017-02-16T00:19:14.739Z,24.14
2017-02-16T00:19:19.160Z,24.14
2017-02-16T00:19:23.916Z,24.15
2017-02-16T00:19:28.514Z,24.14
2017-02-16T00:19:33.222Z,24.15
2017-02-16T00:19:37.995Z,24.14
2017-02-16T00:19:42.770Z,24.14
2017-02-16T00:19:47.359Z,24.15
2017-02-16T00:19:52.098Z,24.14
2017-02-16T00:19:56.816Z,24.14
2017-02-16T00:20:01.539Z,24.14
2017-02-16T00:20:06.399Z,24.14
2017-02-16T00:20:10.826Z,24.13
2017-02-16T00:20:15.399Z,24.14
2017-02-16T00:20:19.688Z,24.14
2017-02-16T00:20:24.268Z,24.14
2017-02-16T00:20:28.758Z,24.14
2017-02-16T00:20:33.333Z,24.15
2017-02-16T00:20:38.044Z,24.14
2017-02-16T00:20:42.761Z,24.14
2017-02-16T00:20:47.474Z,24.14
2017-02-16T00:20:52.211Z,24.14
2017-02-16T00:20:56.924Z,24.14
2017-02-16T00:21:01.776Z,24.14
2017-02-16T00:21:06.496Z,24.14
2017-02-16T00:21:11.082Z,24.13
2017-02-16T00:21:15.661Z,24.13
2017-02-16T00:21:20.400Z,24.14
2017-02-16T00:21:24.981Z,24.14
2017-02-16T00:21:29.708Z,24.14
2017-02-16T00:21:34.416Z,24.14
2017-02-16T00:21:39.132Z,24.14
2017-02-16T00:21:43.723Z,24.14
2017-02-16T00:21:48.449Z,24.13
2017-02-16T00:21:53.187Z,24.14
2017-02-16T00:21:57.910Z,24.13
2017-02-16T00:22:02.646Z,24.14
2017-02-16T00:22:07.242Z,24.14
2017-02-16T00:22:11.959Z,24.13
2017-02-16T00:22:16.228Z,24.13
2017-02-16T00:22:20.955Z,24.14
2017-02-16T00:22:25.554Z,24.14
2017-02-16T00:22:30.158Z,24.13
2017-02-16T00:22:34.871Z,24.13
2017-02-16T00:22:39.632Z,24.13
2017-02-16T00:22:44.359Z,24.13
2017-02-16T00:22:49.079Z,24.13
2017-02-16T00:22:53.818Z,24.14
2017-02-16T00:22:58.532Z,24.13
2017-02-16T00:23:03.250Z,24.14
2017-02-16T00:23:07.984Z,24.14
2017-02-16T00:23:12.534Z,24.14
2017-02-16T00:23:16.810Z,24.14
2017-02-16T00:23:21.389Z,24.13
2017-02-16T00:23:26.108Z,24.14
2017-02-16T00:23:30.819Z,24.13
2017-02-16T00:23:35.540Z,24.13
2017-02-16T00:23:40.270Z,24.13
2017-02-16T00:23:44.996Z,24.13
2017-02-16T00:23:49.715Z,24.13
2017-02-16T00:23:54.273Z,24.13
2017-02-16T00:23:58.974Z,24.13
2017-02-16T00:24:03.712Z,24.13
2017-02-16T00:24:08.163Z,24.13
2017-02-16T00:24:12.724Z,24.13
2017-02-16T00:24:17.004Z,24.13
2017-02-16T00:24:21.578Z,24.12
2017-02-16T00:24:26.173Z,24.13
2017-02-16T00:24:30.765Z,24.13
2017-02-16T00:24:35.502Z,24.13
2017-02-16T00:24:40.227Z,24.12
2017-02-16T00:24:44.803Z,24.13
2017-02-16T00:24:49.533Z,24.13
2017-02-16T00:24:54.568Z,24.12
2017-02-16T00:24:59.333Z,24.13
2017-02-16T00:25:04.313Z,24.13
2017-02-16T00:25:08.887Z,24.13
2017-02-16T00:25:13.306Z,24.13
2017-02-16T00:25:17.868Z,24.13
2017-02-16T00:25:22.467Z,24.12
2017-02-16T00:25:27.166Z,24.12
2017-02-16T00:25:31.711Z,24.12
2017-02-16T00:25:36.171Z,24.12
2017-02-16T00:25:40.904Z,24.12
2017-02-16T00:25:45.647Z,24.13
2017-02-16T00:25:50.383Z,24.13
2017-02-16T00:25:55.110Z,24.13
2017-02-16T00:25:59.820Z,24.12
2017-02-16T00:26:04.590Z,24.12
2017-02-16T00:26:09.169Z,24.13
2017-02-16T00:26:13.617Z,24.12
2017-02-16T00:26:18.325Z,24.12
2017-02-16T00:26:22.896Z,24.13
2017-02-16T00:26:27.613Z,24.12
2017-02-16T00:26:32.190Z,24.12
2017-02-16T00:26:36.767Z,24.12
2017-02-16T00:26:41.491Z,24.12
2017-02-16T00:26:46.208Z,24.12
2017-02-16T00:26:50.925Z,24.12
2017-02-16T00:26:55.646Z,24.13
2017-02-16T00:27:00.355Z,24.12
2017-02-16T00:27:05.107Z,24.12
2017-02-16T00:27:09.682Z,24.13
2017-02-16T00:27:14.119Z,24.12
2017-02-16T00:27:18.666Z,24.12
2017-02-16T00:27:23.370Z,24.12
2017-02-16T00:27:28.109Z,24.12
2017-02-16T00:27:32.867Z,24.12
2017-02-16T00:27:37.576Z,24.13
2017-02-16T00:27:42.307Z,24.13
2017-02-16T00:27:47.014Z,24.12
2017-02-16T00:27:51.725Z,24.12
2017-02-16T00:27:56.492Z,24.11
2017-02-16T00:28:01.198Z,24.13
2017-02-16T00:28:06.059Z,24.12
2017-02-16T00:28:10.615Z,24.12
2017-02-16T00:28:15.339Z,24.12
2017-02-16T00:28:19.913Z,24.13
2017-02-16T00:28:24.505Z,24.12
2017-02-16T00:28:29.229Z,24.12
2017-02-16T00:28:33.960Z,24.12
2017-02-16T00:28:38.524Z,24.13
2017-02-16T00:28:43.240Z,24.12
2017-02-16T00:28:47.961Z,24.12
2017-02-16T00:28:52.710Z,24.11
2017-02-16T00:28:57.433Z,24.12
2017-02-16T00:29:02.138Z,24.12
2017-02-16T00:29:06.899Z,24.12
2017-02-16T00:29:11.599Z,24.12
2017-02-16T00:29:16.206Z,24.12
2017-02-16T00:29:20.928Z,24.12
2017-02-16T00:29:25.649Z,24.12
2017-02-16T00:29:30.345Z,24.12
2017-02-16T00:29:34.941Z,24.12
2017-02-16T00:29:39.518Z,24.12
2017-02-16T00:29:44.099Z,24.11
2017-02-16T00:29:48.812Z,24.12
2017-02-16T00:29:53.531Z,24.12
2017-02-16T00:29:58.449Z,24.11
2017-02-16T00:30:03.227Z,24.11
2017-02-16T00:30:07.684Z,24.12
2017-02-16T00:30:12.405Z,24.12
2017-02-16T00:30:16.832Z,24.11
2017-02-16T00:30:21.545Z,24.11
2017-02-16T00:30:25.962Z,24.12
2017-02-16T00:30:30.704Z,24.12
2017-02-16T00:30:35.279Z,24.12
2017-02-16T00:30:39.847Z,24.12
2017-02-16T00:30:44.564Z,24.12
2017-02-16T00:30:49.295Z,24.12
2017-02-16T00:30:54.039Z,24.12
2017-02-16T00:30:58.757Z,24.12
2017-02-16T00:31:03.479Z,24.11
2017-02-16T00:31:08.216Z,24.12
2017-02-16T00:31:12.770Z,24.11
2017-02-16T00:31:17.221Z,24.12
2017-02-16T00:31:21.819Z,24.11
2017-02-16T00:31:26.551Z,24.11
2017-02-16T00:31:31.309Z,24.12
2017-02-16T00:31:36.016Z,24.11
2017-02-16T00:31:40.571Z,24.11
2017-02-16T00:31:45.304Z,24.1
2017-02-16T00:31:50.037Z,24.11
2017-02-16T00:31:54.768Z,24.11
2017-02-16T00:31:59.487Z,24.1
2017-02-16T00:32:04.068Z,24.11
2017-02-16T00:32:08.511Z,24.11
2017-02-16T00:32:13.248Z,24.11
2017-02-16T00:32:17.846Z,24.11
2017-02-16T00:32:22.419Z,24.11
2017-02-16T00:32:27.143Z,24.11
2017-02-16T00:32:31.876Z,24.11
2017-02-16T00:32:36.439Z,24.11
2017-02-16T00:32:41.192Z,24.1
2017-02-16T00:32:45.907Z,24.11
2017-02-16T00:32:50.660Z,24.11
2017-02-16T00:32:55.250Z,24.11
2017-02-16T00:32:59.971Z,24.11
2017-02-16T00:33:04.911Z,24.1
2017-02-16T00:33:09.518Z,24.11
2017-02-16T00:33:13.954Z,24.12
2017-02-16T00:33:18.653Z,24.11
2017-02-16T00:33:23.380Z,24.11
2017-02-16T00:33:28.140Z,24.1
2017-02-16T00:33:32.868Z,24.11
2017-02-16T00:33:37.448Z,24.11
2017-02-16T00:33:42.169Z,24.11
2017-02-16T00:33:46.894Z,24.11
2017-02-16T00:33:51.613Z,24.1
2017-02-16T00:33:56.065Z,24.1
2017-02-16T00:34:00.818Z,24.11
2017-02-16T00:34:05.545Z,24.1
2017-02-16T00:34:10.113Z,24.11
2017-02-16T00:34:14.398Z,24.1
2017-02-16T00:34:19.004Z,24.1
2017-02-16T00:34:23.763Z,24.11
2017-02-16T00:34:28.492Z,24.11
2017-02-16T00:34:33.216Z,24.11
2017-02-16T00:34:37.931Z,24.1
2017-02-16T00:34:42.718Z,24.1
2017-02-16T00:34:47.310Z,24.11
2017-02-16T00:34:51.999Z,24.11
2017-02-16T00:34:56.977Z,24.1
2017-02-16T00:35:01.695Z,24.1
2017-02-16T00:35:06.387Z,24.1
2017-02-16T00:35:11.116Z,24.11
2017-02-16T00:35:15.854Z,24.11
2017-02-16T00:35:20.441Z,24.1
2017-02-16T00:35:25.155Z,24.1
2017-02-16T00:35:29.760Z,24.1
2017-02-16T00:35:34.510Z,24.09
2017-02-16T00:35:39.228Z,24.11
2017-02-16T00:35:43.917Z,24.1
2017-02-16T00:35:48.507Z,24.1
2017-02-16T00:35:53.232Z,24.1
2017-02-16T00:35:57.997Z,24.1
2017-02-16T00:36:02.917Z,24.1
2017-02-16T00:36:07.521Z,24.09
2017-02-16T00:36:12.092Z,24.1
2017-02-16T00:36:16.674Z,24.1
2017-02-16T00:36:21.399Z,24.1
2017-02-16T00:36:26.117Z,24.1
2017-02-16T00:36:30.855Z,24.1
2017-02-16T00:36:35.584Z,24.1
2017-02-16T00:36:40.286Z,24.1
2017-02-16T00:36:44.998Z,24.1
2017-02-16T00:36:49.742Z,24.1
2017-02-16T00:36:54.350Z,24.1
2017-02-16T00:36:58.938Z,24.09
2017-02-16T00:37:03.672Z,24.1
2017-02-16T00:37:08.260Z,24.1
2017-02-16T00:37:12.829Z,24.1
2017-02-16T00:37:17.265Z,24.09
2017-02-16T00:37:21.973Z,24.1
2017-02-16T00:37:26.724Z,24.1
2017-02-16T00:37:31.354Z,24.1
2017-02-16T00:37:36.055Z,24.1
2017-02-16T00:37:40.766Z,24.09
2017-02-16T00:37:45.533Z,24.09
2017-02-16T00:37:50.103Z,24.1
2017-02-16T00:37:54.815Z,24.09
2017-02-16T00:37:59.528Z,24.1
2017-02-16T00:38:04.609Z,24.09
2017-02-16T00:38:09.035Z,24.1
2017-02-16T00:38:13.612Z,24.1
2017-02-16T00:38:18.323Z,24.1
2017-02-16T00:38:22.901Z,24.09
2017-02-16T00:38:27.666Z,24.1
2017-02-16T00:38:32.282Z,24.09
2017-02-16T00:38:37.029Z,24.09
2017-02-16T00:38:41.724Z,24.09
2017-02-16T00:38:46.296Z,24.1
2017-02-16T00:38:51.009Z,24.09
2017-02-16T00:38:55.739Z,24.09
2017-02-16T00:39:00.449Z,24.1
2017-02-16T00:39:05.042Z,24.09
2017-02-16T00:39:09.753Z,24.09
2017-02-16T00:39:14.473Z,24.1
2017-02-16T00:39:19.181Z,24.1
2017-02-16T00:39:23.929Z,24.09
2017-02-16T00:39:28.513Z,24.1
2017-02-16T00:39:33.244Z,24.1
2017-02-16T00:39:37.987Z,24.1
2017-02-16T00:39:42.756Z,24.1
2017-02-16T00:39:47.329Z,24.09
2017-02-16T00:39:52.050Z,24.09
2017-02-16T00:39:56.769Z,24.09
2017-02-16T00:40:01.624Z,24.09
2017-02-16T00:40:06.034Z,24.1
2017-02-16T00:40:10.623Z,24.09
2017-02-16T00:40:15.193Z,24.09
2017-02-16T00:40:19.944Z,24.09
2017-02-16T00:40:24.522Z,24.1
2017-02-16T00:40:29.231Z,24.09
2017-02-16T00:40:33.958Z,24.09
2017-02-16T00:40:38.707Z,24.1
2017-02-16T00:40:43.302Z,24.09
2017-02-16T00:40:48.006Z,24.09
2017-02-16T00:40:52.708Z,24.09
2017-02-16T00:40:57.473Z,24.09
2017-02-16T00:41:02.207Z,24.09
2017-02-16T00:41:06.960Z,24.09
2017-02-16T00:41:11.533Z,24.09
2017-02-16T00:41:15.803Z,24.09
2017-02-16T00:41:20.409Z,24.09
2017-02-16T00:41:25.014Z,24.08
2017-02-16T00:41:29.731Z,24.09
2017-02-16T00:41:34.314Z,24.09
2017-02-16T00:41:39.009Z,24.09
2017-02-16T00:41:43.729Z,24.09
2017-02-16T00:41:48.448Z,24.09
2017-02-16T00:41:53.169Z,24.09
2017-02-16T00:41:57.891Z,24.09
2017-02-16T00:42:02.678Z,24.09
2017-02-16T00:42:07.250Z,24.08
2017-02-16T00:42:11.989Z,24.08
2017-02-16T00:42:16.558Z,24.09
2017-02-16T00:42:21.262Z,24.09
2017-02-16T00:42:25.992Z,24.09
2017-02-16T00:42:30.741Z,24.09
2017-02-16T00:42:35.493Z,24.09
2017-02-16T00:42:40.064Z,24.09
2017-02-16T00:42:44.628Z,24.09
2017-02-16T00:42:49.212Z,24.08
2017-02-16T00:42:53.977Z,24.09
2017-02-16T00:42:58.677Z,24.08
2017-02-16T00:43:03.430Z,24.09
2017-02-16T00:43:08.206Z,24.09
2017-02-16T00:43:12.785Z,24.08
2017-02-16T00:43:17.219Z,24.08
2017-02-16T00:43:21.787Z,24.09
2017-02-16T00:43:26.505Z,24.08
2017-02-16T00:43:31.235Z,24.08
2017-02-16T00:43:35.959Z,24.08
2017-02-16T00:43:40.558Z,24.08
2017-02-16T00:43:45.287Z,24.08
2017-02-16T00:43:50.008Z,24.08
2017-02-16T00:43:54.732Z,24.08
2017-02-16T00:43:59.427Z,24.09
2017-02-16T00:44:04.434Z,24.08
2017-02-16T00:44:08.990Z,24.08
2017-02-16T00:44:13.548Z,24.08
2017-02-16T00:44:18.100Z,24.08
2017-02-16T00:44:22.838Z,24.09
2017-02-16T00:44:27.560Z,24.08
2017-02-16T00:44:32.293Z,24.08
2017-02-16T00:44:36.991Z,24.08
2017-02-16T00:44:41.714Z,24.08
2017-02-16T00:44:46.441Z,24.08
2017-02-16T00:44:51.159Z,24.08
2017-02-16T00:44:55.748Z,24.08
2017-02-16T00:45:00.659Z,24.07
2017-02-16T00:45:05.280Z,24.08
2017-02-16T00:45:09.889Z,24.08
2017-02-16T00:45:14.342Z,24.09
2017-02-16T00:45:18.914Z,24.08
2017-02-16T00:45:23.502Z,24.08
2017-02-16T00:45:28.214Z,24.08
2017-02-16T00:45:32.972Z,24.08
2017-02-16T00:45:37.704Z,24.09
2017-02-16T00:45:42.336Z,24.09
2017-02-16T00:45:47.078Z,24.08
2017-02-16T00:45:51.817Z,24.08
2017-02-16T00:45:56.259Z,24.09
2017-02-16T00:46:01.043Z,24.08
2017-02-16T00:46:05.811Z,24.08
2017-02-16T00:46:10.530Z,24.07
2017-02-16T00:46:15.244Z,24.08
2017-02-16T00:46:19.850Z,24.08
2017-02-16T00:46:24.551Z,24.08
2017-02-16T00:46:29.290Z,24.08
2017-02-16T00:46:34.025Z,24.08
2017-02-16T00:46:38.753Z,24.08
2017-02-16T00:46:43.485Z,24.08
2017-02-16T00:46:48.242Z,24.07
2017-02-16T00:46:53.006Z,24.07
2017-02-16T00:46:57.597Z,24.08
2017-02-16T00:47:02.671Z,24.08
2017-02-16T00:47:07.251Z,24.08
2017-02-16T00:47:11.986Z,24.07
2017-02-16T00:47:16.586Z,24.08
2017-02-16T00:47:21.309Z,24.07
2017-02-16T00:47:26.021Z,24.08
2017-02-16T00:47:30.721Z,24.07
2017-02-16T00:47:35.293Z,24.07
2017-02-16T00:47:40.010Z,24.08
2017-02-16T00:47:44.728Z,24.08
2017-02-16T00:47:49.455Z,24.08
2017-02-16T00:47:54.054Z,24.08
2017-02-16T00:47:58.646Z,24.07
2017-02-16T00:48:03.360Z,24.08
2017-02-16T00:48:07.978Z,24.08
2017-02-16T00:48:12.558Z,24.08
2017-02-16T00:48:17.121Z,24.08
2017-02-16T00:48:21.703Z,24.08
2017-02-16T00:48:26.424Z,24.08
2017-02-16T00:48:31.228Z,24.08
2017-02-16T00:48:35.800Z,24.07
2017-02-16T00:48:40.501Z,24.08
2017-02-16T00:48:45.218Z,24.08
2017-02-16T00:48:49.931Z,24.07
2017-02-16T00:48:54.515Z,24.08
2017-02-16T00:48:59.273Z,24.08
2017-02-16T00:49:03.998Z,24.07
2017-02-16T00:49:08.725Z,24.07
2017-02-16T00:49:13.286Z,24.07
2017-02-16T00:49:17.710Z,24.07
2017-02-16T00:49:22.469Z,24.07
2017-02-16T00:49:27.200Z,24.08
2017-02-16T00:49:31.628Z,24.07
2017-02-16T00:49:36.363Z,24.08
2017-02-16T00:49:41.154Z,24.07
2017-02-16T00:49:45.893Z,24.07
2017-02-16T00:49:50.494Z,24.07
2017-02-16T00:49:55.228Z,24.08
2017-02-16T00:50:00.092Z,24.08
2017-02-16T00:50:05.069Z,24.06
2017-02-16T00:50:09.646Z,24.07
2017-02-16T00:50:13.909Z,24.07
2017-02-16T00:50:18.473Z,24.07
2017-02-16T00:50:23.208Z,24.07
2017-02-16T00:50:27.946Z,24.07
2017-02-16T00:50:32.706Z,24.07
2017-02-16T00:50:37.429Z,24.07
2017-02-16T00:50:42.143Z,24.07
2017-02-16T00:50:46.843Z,24.07
2017-02-16T00:50:51.557Z,24.07
2017-02-16T00:50:56.131Z,24.07
2017-02-16T00:51:00.858Z,24.07
2017-02-16T00:51:05.585Z,24.07
2017-02-16T00:51:10.179Z,24.07
2017-02-16T00:51:14.620Z,24.08
2017-02-16T00:51:19.350Z,24.07
2017-02-16T00:51:24.099Z,24.06
2017-02-16T00:51:28.848Z,24.06
2017-02-16T00:51:33.619Z,24.06
2017-02-16T00:51:38.344Z,24.07
2017-02-16T00:51:43.109Z,24.07
2017-02-16T00:51:47.830Z,24.06
2017-02-16T00:51:52.418Z,24.07
2017-02-16T00:51:56.971Z,24.07
2017-02-16T00:52:02.031Z,24.07
2017-02-16T00:52:06.602Z,24.07
2017-02-16T00:52:11.052Z,24.06
2017-02-16T00:52:15.536Z,24.06
2017-02-16T00:52:20.282Z,24.07
2017-02-16T00:52:25.002Z,24.07
2017-02-16T00:52:29.706Z,24.06
2017-02-16T00:52:34.412Z,24.07
2017-02-16T00:52:39.155Z,24.06
2017-02-16T00:52:43.881Z,24.07
2017-02-16T00:52:48.590Z,24.07
2017-02-16T00:52:53.298Z,24.06
2017-02-16T00:52:58.050Z,24.07
2017-02-16T00:53:02.794Z,24.07
2017-02-16T00:53:07.531Z,24.06
2017-02-16T00:53:12.277Z,24.07
2017-02-16T00:53:16.867Z,24.07
2017-02-16T00:53:21.421Z,24.06
2017-02-16T00:53:26.005Z,24.07
2017-02-16T00:53:30.735Z,24.06
2017-02-16T00:53:35.441Z,24.07
2017-02-16T00:53:40.160Z,24.07
2017-02-16T00:53:44.736Z,24.07
2017-02-16T00:53:49.303Z,24.06
2017-02-16T00:53:54.029Z,24.06
2017-02-16T00:53:58.606Z,24.06
2017-02-16T00:54:03.324Z,24.06
2017-02-16T00:54:07.749Z,24.07
2017-02-16T00:54:12.160Z,24.06
2017-02-16T00:54:16.884Z,24.06
2017-02-16T00:54:21.472Z,24.07
2017-02-16T00:54:26.187Z,24.07
2017-02-16T00:54:30.767Z,24.06
2017-02-16T00:54:35.483Z,24.06
2017-02-16T00:54:40.198Z,24.06
2017-02-16T00:54:44.905Z,24.06
2017-02-16T00:54:49.472Z,24.07
2017-02-16T00:54:54.212Z,24.06
2017-02-16T00:54:58.945Z,24.06
2017-02-16T00:55:03.836Z,24.06
2017-02-16T00:55:08.384Z,24.06
2017-02-16T00:55:12.967Z,24.07
2017-02-16T00:55:17.705Z,24.06
2017-02-16T00:55:22.258Z,24.06
2017-02-16T00:55:26.999Z,24.07
2017-02-16T00:55:31.573Z,24.07
2017-02-16T00:55:36.289Z,24.07
2017-02-16T00:55:41.006Z,24.06
2017-02-16T00:55:45.717Z,24.06
2017-02-16T00:55:50.434Z,24.07
2017-02-16T00:55:55.156Z,24.06
2017-02-16T00:55:59.922Z,24.06
2017-02-16T00:56:04.666Z,24.06
2017-02-16T00:56:09.269Z,24.06
2017-02-16T00:56:13.985Z,24.06
2017-02-16T00:56:18.711Z,24.06
2017-02-16T00:56:23.428Z,24.06
2017-02-16T00:56:28.202Z,24.06
2017-02-16T00:56:32.919Z,24.06
2017-02-16T00:56:37.632Z,24.06
2017-02-16T00:56:42.357Z,24.05
2017-02-16T00:56:47.081Z,24.06
2017-02-16T00:56:51.815Z,24.06
2017-02-16T00:56:56.395Z,24.06
2017-02-16T00:57:01.115Z,24.05
2017-02-16T00:57:05.858Z,24.06
2017-02-16T00:57:10.445Z,24.06
2017-02-16T00:57:15.172Z,24.06
2017-02-16T00:57:19.457Z,24.06
2017-02-16T00:57:24.062Z,24.06
2017-02-16T00:57:28.782Z,24.06
2017-02-16T00:57:33.504Z,24.06
2017-02-16T00:57:38.249Z,24.06
2017-02-16T00:57:43.024Z,24.06
2017-02-16T00:57:47.739Z,24.05
2017-02-16T00:57:52.468Z,24.06
2017-02-16T00:57:57.185Z,24.06
2017-02-16T00:58:01.764Z,24.06
2017-02-16T00:58:06.293Z,24.05
2017-02-16T00:58:10.997Z,24.05
2017-02-16T00:58:15.751Z,24.06
2017-02-16T00:58:20.323Z,24.05
2017-02-16T00:58:24.907Z,24.06
2017-02-16T00:58:29.353Z,24.06
2017-02-16T00:58:34.102Z,24.06
2017-02-16T00:58:38.822Z,24.05
2017-02-16T00:58:43.608Z,24.06
2017-02-16T00:58:48.338Z,24.06
2017-02-16T00:58:52.928Z,24.05
2017-02-16T00:58:57.648Z,24.06
2017-02-16T00:59:02.377Z,24.06
2017-02-16T00:59:07.101Z,24.06
2017-02-16T00:59:11.847Z,24.06
2017-02-16T00:59:16.267Z,24.05
2017-02-16T00:59:20.873Z,24.06
2017-02-16T00:59:25.577Z,24.06
2017-02-16T00:59:30.321Z,24.06
2017-02-16T00:59:35.040Z,24.05
2017-02-16T00:59:39.781Z,24.06
2017-02-16T00:59:44.524Z,24.05
2017-02-16T00:59:49.232Z,24.06
2017-02-16T00:59:53.797Z,24.06
2017-02-16T00:59:58.547Z,24.05
2017-02-16T01:00:03.459Z,24.06
2017-02-16T01:00:07.882Z,24.06
2017-02-16T01:00:12.446Z,24.06
2017-02-16T01:00:16.872Z,24.05